Time;durP1;ratioP1;P1;durP2;ratioP2;P2;SDS_P1;SDS_P2;PMS_P1;PMS_P2;Temp;Humidity;BMP_temperature;BMP_pressure;BME280_temperature;BME280_humidity;BME280_pressure;Samples;Min_cycle;Max_cycle;Signal;HPM_P1;HPM_P2
2022/01/27 00:00:43;;;;;;;55.10;26.10;;;;;;;;;;5042496;28;20049;-70
2022/01/27 00:06:09;;;;;;;55.33;24.90;;;;;;;;;;5029143;28;20160;-70
2022/01/27 00:08:48;;;;;;;53.17;25.95;;;;;;;;;;5041923;28;20244;-70
2022/01/27 00:11:15;;;;;;;48.70;24.63;;;;;;;;;;5040868;28;20059;-70
2022/01/27 00:13:59;;;;;;;53.20;24.88;;;;;;;;;;5045310;28;20053;-70
2022/01/27 00:16:28;;;;;;;48.22;23.35;;;;;;;;;;5046288;28;20096;-71
2022/01/27 00:18:55;;;;;;;46.58;23.27;;;;;;;;;;5045404;28;20052;-70
2022/01/27 00:21:23;;;;;;;46.25;23.85;;;;;;;;;;5045704;28;20055;-70
2022/01/27 00:23:50;;;;;;;46.63;23.38;;;;;;;;;;5044905;28;20067;-71
2022/01/27 00:26:16;;;;;;;37.75;19.88;;;;;;;;;;5045735;28;20129;-70
2022/01/27 00:28:44;;;;;;;42.83;20.80;;;;;;;;;;5045071;28;20080;-71
2022/01/27 00:31:10;;;;;;;36.72;18.73;;;;;;;;;;5044949;28;20926;-71
2022/01/27 00:33:41;;;;;;;40.35;19.60;;;;;;;;;;5044938;28;20055;-71
2022/01/27 00:36:08;;;;;;;42.75;21.25;;;;;;;;;;5045273;28;20049;-70
2022/01/27 00:38:34;;;;;;;51.45;23.02;;;;;;;;;;5045498;28;20148;-70
2022/01/27 00:41:00;;;;;;;42.38;20.23;;;;;;;;;;5045334;28;20053;-70
2022/01/27 00:43:27;;;;;;;38.38;18.10;;;;;;;;;;5045330;28;20063;-71
2022/01/27 00:45:53;;;;;;;39.33;19.02;;;;;;;;;;5045114;28;20141;-70
2022/01/27 00:48:19;;;;;;;42.42;19.88;;;;;;;;;;5044914;28;20056;-71
2022/01/27 00:50:55;;;;;;;37.92;17.17;;;;;;;;;;5044615;28;20057;-71
2022/01/27 00:56:19;;;;;;;38.55;20.85;;;;;;;;;;5025417;28;20148;-70
2022/01/27 00:58:57;;;;;;;43.15;20.85;;;;;;;;;;5024926;28;20069;-70
2022/01/27 01:01:29;;;;;;;;;;;;;;;;;;5040876;28;20387;-70
2022/01/27 01:04:00;;;;;;;41.53;20.08;;;;;;;;;;5044247;28;20095;-70
2022/01/27 01:06:45;;;;;;;43.08;19.70;;;;;;;;;;5044500;28;20154;-70
2022/01/27 01:12:44;;;;;;;44.45;19.42;;;;;;;;;;5023218;28;20110;-70
2022/01/27 01:15:01;;;;;;;43.25;21.35;;;;;;;;;;5044647;28;20049;-70
2022/01/27 01:17:35;;;;;;;45.42;22.05;;;;;;;;;;5045133;28;20053;-70
2022/01/27 01:20:21;;;;;;;41.22;19.42;;;;;;;;;;5042981;28;20474;-70
2022/01/27 01:31:13;;;;;;;43.95;22.65;;;;;;;;;;5044021;28;20049;-70
2022/01/27 01:33:42;;;;;;;48.20;21.88;;;;;;;;;;5044944;28;20490;-70
2022/01/27 01:36:26;;;;;;;48.05;22.05;;;;;;;;;;5044911;28;20053;-70
2022/01/27 01:38:52;;;;;;;42.53;21.10;;;;;;;;;;5045312;28;20471;-70
2022/01/27 01:41:18;;;;;;;45.90;21.08;;;;;;;;;;5044559;28;20479;-70
2022/01/27 01:43:45;;;;;;;41.20;21.58;;;;;;;;;;5043300;28;20088;-71
2022/01/27 01:46:11;;;;;;;42.35;22.80;;;;;;;;;;5044756;28;20139;-71
2022/01/27 01:48:37;;;;;;;49.67;26.17;;;;;;;;;;5044566;28;20489;-71
2022/01/27 01:51:04;;;;;;;41.20;18.70;;;;;;;;;;5044041;28;20406;-71
2022/01/27 01:53:30;;;;;;;40.85;20.95;;;;;;;;;;5043955;28;20132;-71
2022/01/27 01:55:58;;;;;;;48.22;22.92;;;;;;;;;;5043291;28;20045;-71
2022/01/27 01:58:24;;;;;;;43.80;22.35;;;;;;;;;;5042765;28;20140;-71
2022/01/27 02:00:50;;;;;;;44.08;21.20;;;;;;;;;;5042797;28;20070;-71
2022/01/27 02:03:17;;;;;;;43.30;20.90;;;;;;;;;;5043103;28;20053;-71
2022/01/27 02:05:49;;;;;;;41.55;20.35;;;;;;;;;;5042514;28;20048;-70
2022/01/27 02:19:08;;;;;;;39.78;20.45;;;;;;;;;;5043745;28;20809;-70
2022/01/27 02:21:42;;;;;;;44.33;19.77;;;;;;;;;;5043138;28;20048;-70
2022/01/27 02:24:09;;;;;;;39.55;19.85;;;;;;;;;;5044107;28;20273;-70
2022/01/27 02:26:35;;;;;;;41.72;20.88;;;;;;;;;;5043469;28;20679;-70
2022/01/27 02:29:01;;;;;;;41.28;20.08;;;;;;;;;;5022780;28;20057;-70
2022/01/27 02:31:28;;;;;;;38.88;18.92;;;;;;;;;;5023531;28;20049;-70
2022/01/27 02:33:55;;;;;;;36.38;18.52;;;;;;;;;;5023075;28;20080;-70
2022/01/27 02:36:22;;;;;;;38.83;20.98;;;;;;;;;;5024003;28;20049;-70
2022/01/27 02:38:48;;;;;;;39.55;20.55;;;;;;;;;;5023335;28;20432;-70
2022/01/27 02:41:16;;;;;;;39.83;20.25;;;;;;;;;;5023290;28;20064;-70
2022/01/27 02:43:42;;;;;;;43.55;20.63;;;;;;;;;;5023415;28;20071;-70
2022/01/27 02:46:09;;;;;;;40.40;19.98;;;;;;;;;;5035526;28;20529;-70
2022/01/27 02:48:36;;;;;;;41.75;21.15;;;;;;;;;;5023138;28;20387;-70
2022/01/27 02:51:02;;;;;;;48.00;21.08;;;;;;;;;;5023077;28;20607;-70
2022/01/27 02:53:28;;;;;;;41.00;20.45;;;;;;;;;;5021855;28;20056;-70
2022/01/27 02:55:54;;;;;;;44.67;22.13;;;;;;;;;;5022805;28;20662;-70
2022/01/27 02:58:21;;;;;;;42.33;21.55;;;;;;;;;;5023726;28;20091;-70
2022/01/27 03:00:47;;;;;;;45.35;20.80;;;;;;;;;;5022689;28;20057;-69
2022/01/27 03:03:13;;;;;;;36.50;18.50;;;;;;;;;;5023299;28;20057;-69
2022/01/27 03:05:40;;;;;;;46.33;21.38;;;;;;;;;;5022893;28;20103;-69
2022/01/27 03:08:06;;;;;;;41.17;19.80;;;;;;;;;;5022456;28;20053;-69
2022/01/27 03:10:34;;;;;;;43.63;20.10;;;;;;;;;;5021316;28;20055;-69
2022/01/27 03:13:00;;;;;;;44.40;20.45;;;;;;;;;;5022828;28;20063;-70
2022/01/27 03:15:27;;;;;;;40.97;21.02;;;;;;;;;;5022665;28;20611;-70
2022/01/27 03:17:54;;;;;;;44.40;21.05;;;;;;;;;;5023223;28;20053;-70
2022/01/27 03:20:21;;;;;;;40.92;20.75;;;;;;;;;;5041255;28;20417;-69
2022/01/27 03:22:48;;;;;;;42.17;21.27;;;;;;;;;;5043489;28;20059;-69
2022/01/27 03:25:14;;;;;;;42.33;20.13;;;;;;;;;;5042672;28;20103;-71
2022/01/27 03:27:46;;;;;;;36.85;18.23;;;;;;;;;;5042058;28;20156;-70
2022/01/27 03:30:13;;;;;;;44.33;21.38;;;;;;;;;;5042754;28;20083;-71
2022/01/27 03:32:39;;;;;;;41.53;20.90;;;;;;;;;;5041730;28;20045;-71
2022/01/27 03:35:06;;;;;;;42.95;20.75;;;;;;;;;;5042924;28;20413;-71
2022/01/27 03:37:32;;;;;;;40.97;19.50;;;;;;;;;;5042615;28;20056;-70
2022/01/27 03:39:59;;;;;;;43.42;21.60;;;;;;;;;;5042559;28;20078;-70
2022/01/27 03:42:26;;;;;;;37.15;19.02;;;;;;;;;;5042714;28;20052;-70
2022/01/27 03:44:52;;;;;;;41.95;21.27;;;;;;;;;;5042475;28;20659;-71
2022/01/27 03:47:18;;;;;;;40.63;19.67;;;;;;;;;;5043949;28;20049;-70
2022/01/27 03:49:44;;;;;;;43.85;21.20;;;;;;;;;;5045803;28;20135;-70
2022/01/27 03:52:11;;;;;;;40.65;20.02;;;;;;;;;;5046021;28;20049;-70
2022/01/27 03:54:37;;;;;;;37.80;19.80;;;;;;;;;;5045903;28;20049;-70
2022/01/27 03:57:04;;;;;;;41.25;19.23;;;;;;;;;;5045725;28;20087;-70
2022/01/27 03:59:30;;;;;;;42.13;20.02;;;;;;;;;;5046372;28;20075;-70
2022/01/27 04:01:57;;;;;;;46.53;21.95;;;;;;;;;;5045515;28;20599;-70
2022/01/27 04:04:25;;;;;;;44.20;22.20;;;;;;;;;;5046530;28;20049;-70
2022/01/27 04:06:53;;;;;;;43.95;19.52;;;;;;;;;;5045435;28;20087;-70
2022/01/27 04:09:19;;;;;;;39.40;21.15;;;;;;;;;;5044003;28;20134;-70
2022/01/27 04:11:47;;;;;;;39.22;17.48;;;;;;;;;;5046030;28;20059;-69
2022/01/27 04:14:13;;;;;;;42.70;20.45;;;;;;;;;;5043803;28;20059;-70
2022/01/27 04:16:40;;;;;;;37.42;17.45;;;;;;;;;;5043815;28;20479;-71
2022/01/27 04:19:06;;;;;;;37.25;18.35;;;;;;;;;;5045143;28;20048;-70
2022/01/27 04:21:33;;;;;;;37.83;19.58;;;;;;;;;;5044534;28;20916;-70
2022/01/27 04:24:00;;;;;;;39.45;18.95;;;;;;;;;;5044711;28;20067;-70
2022/01/27 04:26:38;;;;;;;43.38;19.77;;;;;;;;;;5044746;28;20053;-70
2022/01/27 04:29:05;;;;;;;39.88;19.60;;;;;;;;;;5045167;28;20067;-70
2022/01/27 04:31:31;;;;;;;41.28;18.85;;;;;;;;;;5033482;28;20105;-70
2022/01/27 04:33:59;;;;;;;42.10;19.17;;;;;;;;;;5042768;28;20049;-70
2022/01/27 04:36:34;;;;;;;39.03;18.00;;;;;;;;;;5043207;28;20060;-70
2022/01/27 04:39:12;;;;;;;40.03;19.13;;;;;;;;;;5044489;28;20061;-70
2022/01/27 04:46:57;;;;;;;46.88;21.20;;;;;;;;;;5043952;28;20144;-71
2022/01/27 04:49:24;;;;;;;38.78;18.48;;;;;;;;;;5044820;28;20441;-70
2022/01/27 04:51:51;;;;;;;38.67;18.25;;;;;;;;;;5042911;28;20152;-70
2022/01/27 04:54:52;;;;;;;38.72;17.42;;;;;;;;;;5044636;28;20694;-70
2022/01/27 04:57:05;;;;;;;34.22;14.13;;;;;;;;;;5043200;28;20048;-70
2022/01/27 04:59:37;;;;;;;40.95;18.25;;;;;;;;;;5044699;28;20528;-70
2022/01/27 05:02:09;;;;;;;40.28;18.00;;;;;;;;;;5043610;28;20060;-70
2022/01/27 05:04:41;;;;;;;37.03;17.33;;;;;;;;;;5044594;28;20403;-70
2022/01/27 05:07:08;;;;;;;41.38;17.83;;;;;;;;;;5044454;28;20191;-70
2022/01/27 05:09:35;;;;;;;39.17;18.55;;;;;;;;;;5042032;28;20052;-70
2022/01/27 05:12:16;;;;;;;38.33;18.50;;;;;;;;;;5043704;28;20144;-70
2022/01/27 05:14:42;;;;;;;38.53;18.48;;;;;;;;;;5043777;28;20487;-69
2022/01/27 05:17:08;;;;;;;40.63;19.38;;;;;;;;;;5044327;28;20049;-70
2022/01/27 05:19:35;;;;;;;38.40;18.15;;;;;;;;;;5043955;28;20053;-70
2022/01/27 05:22:01;;;;;;;39.85;17.65;;;;;;;;;;5042835;28;20053;-69
2022/01/27 05:24:27;;;;;;;39.15;17.67;;;;;;;;;;5044606;28;20482;-69
2022/01/27 05:26:53;;;;;;;38.65;18.15;;;;;;;;;;5043738;28;20159;-69
2022/01/27 05:29:20;;;;;;;34.60;14.60;;;;;;;;;;5043669;28;20140;-69
2022/01/27 05:31:49;;;;;;;38.20;17.63;;;;;;;;;;5042271;28;20083;-69
2022/01/27 05:34:16;;;;;;;45.22;17.50;;;;;;;;;;5044065;28;20053;-69
2022/01/27 05:36:42;;;;;;;42.38;21.02;;;;;;;;;;5043597;28;20144;-69
2022/01/27 05:39:09;;;;;;;36.95;17.25;;;;;;;;;;5043795;28;20060;-69
2022/01/27 05:41:35;;;;;;;38.72;16.45;;;;;;;;;;5043509;28;20052;-69
2022/01/27 05:44:01;;;;;;;37.22;17.33;;;;;;;;;;5043050;28;20057;-69
2022/01/27 05:46:28;;;;;;;32.70;16.05;;;;;;;;;;5042233;28;20045;-69
2022/01/27 05:48:54;;;;;;;35.30;16.02;;;;;;;;;;5043049;28;20416;-68
2022/01/27 05:51:21;;;;;;;36.08;16.85;;;;;;;;;;5043280;28;20053;-69
2022/01/27 05:53:47;;;;;;;40.65;18.05;;;;;;;;;;5041606;28;20057;-69
2022/01/27 05:56:13;;;;;;;43.30;15.52;;;;;;;;;;5043689;28;20055;-69
2022/01/27 05:58:40;;;;;;;34.25;17.27;;;;;;;;;;5043205;28;20049;-69
2022/01/27 06:01:06;;;;;;;39.10;18.15;;;;;;;;;;5042888;28;20051;-69
2022/01/27 06:03:32;;;;;;;40.97;17.80;;;;;;;;;;5039956;28;20083;-69
2022/01/27 06:05:59;;;;;;;37.83;17.98;;;;;;;;;;5042173;28;20094;-69
2022/01/27 06:08:28;;;;;;;42.90;17.50;;;;;;;;;;5039949;28;20056;-69
2022/01/27 06:10:54;;;;;;;35.20;17.10;;;;;;;;;;5041035;28;20075;-69
2022/01/27 06:13:21;;;;;;;41.22;17.98;;;;;;;;;;5043745;28;20696;-70
2022/01/27 06:15:47;;;;;;;37.67;17.08;;;;;;;;;;5043192;28;20468;-69
2022/01/27 06:18:14;;;;;;;41.28;17.80;;;;;;;;;;5039140;28;20072;-70
2022/01/27 06:20:43;;;;;;;39.88;16.73;;;;;;;;;;5038104;28;20565;-69
2022/01/27 06:23:10;;;;;;;39.58;17.23;;;;;;;;;;5039818;28;20053;-69
2022/01/27 06:25:37;;;;;;;40.25;16.83;;;;;;;;;;5043819;28;20055;-69
2022/01/27 06:28:03;;;;;;;36.58;15.93;;;;;;;;;;5043033;28;20048;-69
2022/01/27 06:30:34;;;;;;;41.88;17.02;;;;;;;;;;5040903;28;20052;-68
2022/01/27 06:33:02;;;;;;;34.90;15.88;;;;;;;;;;5038638;28;20661;-68
2022/01/27 06:35:29;;;;;;;35.53;16.38;;;;;;;;;;5042268;28;20045;-68
2022/01/27 06:37:55;;;;;;;34.90;16.42;;;;;;;;;;5037057;28;20050;-68
2022/01/27 06:40:21;;;;;;;37.92;17.20;;;;;;;;;;5040185;28;20053;-68
2022/01/27 06:42:48;;;;;;;33.30;16.35;;;;;;;;;;5039448;28;20060;-69
2022/01/27 06:45:14;;;;;;;32.20;15.48;;;;;;;;;;5043702;28;20533;-68
2022/01/27 06:47:40;;;;;;;34.20;16.33;;;;;;;;;;5042224;28;20064;-68
2022/01/27 06:50:07;;;;;;;37.40;16.98;;;;;;;;;;5042772;28;20045;-68
2022/01/27 06:52:34;;;;;;;31.17;16.02;;;;;;;;;;5040706;28;20048;-69
2022/01/27 06:55:02;;;;;;;39.63;15.73;;;;;;;;;;5035328;28;20049;-70
2022/01/27 06:57:34;;;;;;;38.28;16.17;;;;;;;;;;5041331;28;20440;-69
2022/01/27 07:00:00;;;;;;;38.75;16.27;;;;;;;;;;5038083;28;20048;-69
2022/01/27 07:02:27;;;;;;;30.63;14.15;;;;;;;;;;5032638;28;20473;-69
2022/01/27 07:04:53;;;;;;;40.33;16.38;;;;;;;;;;5042397;28;20052;-69
2022/01/27 07:07:20;;;;;;;34.53;15.63;;;;;;;;;;5041931;28;20049;-70
2022/01/27 07:09:46;;;;;;;32.28;14.98;;;;;;;;;;5040127;28;20427;-69
2022/01/27 07:12:13;;;;;;;34.70;15.02;;;;;;;;;;5042499;28;20052;-68
2022/01/27 07:14:39;;;;;;;36.90;15.70;;;;;;;;;;5042383;28;20055;-68
2022/01/27 07:17:06;;;;;;;33.50;15.07;;;;;;;;;;5042658;28;20556;-69
2022/01/27 07:19:32;;;;;;;34.58;16.13;;;;;;;;;;5041833;28;20055;-69
2022/01/27 07:21:59;;;;;;;34.78;15.00;;;;;;;;;;5045263;28;20060;-68
2022/01/27 07:24:25;;;;;;;32.72;15.60;;;;;;;;;;5047707;28;20049;-68
2022/01/27 07:26:52;;;;;;;37.33;15.30;;;;;;;;;;5046399;28;20132;-69
2022/01/27 07:29:18;;;;;;;32.33;15.88;;;;;;;;;;5046880;28;20048;-68
2022/01/27 07:31:44;;;;;;;37.10;14.50;;;;;;;;;;5045831;28;20055;-68
2022/01/27 07:34:11;;;;;;;31.40;14.43;;;;;;;;;;5046521;28;20073;-70
2022/01/27 07:36:38;;;;;;;31.13;14.65;;;;;;;;;;5046900;28;20055;-69
2022/01/27 07:39:04;;;;;;;34.30;15.60;;;;;;;;;;5047395;28;20055;-68
2022/01/27 07:41:36;;;;;;;35.83;15.73;;;;;;;;;;5047347;28;20045;-69
2022/01/27 07:44:02;;;;;;;34.50;15.05;;;;;;;;;;5046025;28;20061;-69
2022/01/27 07:46:28;;;;;;;35.15;15.15;;;;;;;;;;5046588;28;20103;-69
2022/01/27 07:48:55;;;;;;;35.13;15.70;;;;;;;;;;5045199;28;20435;-69
2022/01/27 07:51:22;;;;;;;38.95;16.08;;;;;;;;;;5046560;28;20099;-69
2022/01/27 07:53:48;;;;;;;39.58;15.82;;;;;;;;;;5045630;28;20055;-69
2022/01/27 07:56:29;;;;;;;31.63;14.10;;;;;;;;;;5046163;28;20080;-69
2022/01/27 07:58:55;;;;;;;35.08;14.68;;;;;;;;;;5043829;28;20072;-69
2022/01/27 08:01:21;;;;;;;33.70;14.60;;;;;;;;;;5045935;28;20049;-69
2022/01/27 08:03:48;;;;;;;36.95;14.38;;;;;;;;;;5045718;28;20065;-69
2022/01/27 08:06:14;;;;;;;34.90;13.65;;;;;;;;;;5046227;28;20053;-70
2022/01/27 08:08:41;;;;;;;30.48;13.40;;;;;;;;;;5039937;28;20044;-69
2022/01/27 08:11:08;;;;;;;30.88;14.07;;;;;;;;;;5044350;28;20049;-69
2022/01/27 08:13:34;;;;;;;35.55;15.77;;;;;;;;;;5044358;28;20041;-70
2022/01/27 08:16:05;;;;;;;30.50;13.50;;;;;;;;;;5045520;28;20059;-70
2022/01/27 08:18:43;;;;;;;28.38;13.38;;;;;;;;;;5045133;28;20072;-69
2022/01/27 08:21:10;;;;;;;33.20;14.88;;;;;;;;;;5044394;28;20053;-70
2022/01/27 08:23:38;;;;;;;31.23;14.57;;;;;;;;;;5033312;28;20045;-69
2022/01/27 08:26:07;;;;;;;31.02;13.38;;;;;;;;;;5037138;28;20045;-69
2022/01/27 08:28:43;;;;;;;26.08;13.77;;;;;;;;;;5041762;28;20803;-69
2022/01/27 08:31:11;;;;;;;28.60;13.48;;;;;;;;;;5041170;28;20053;-69
2022/01/27 08:33:40;;;;;;;26.98;13.52;;;;;;;;;;5039975;28;20056;-69
2022/01/27 08:36:06;;;;;;;27.33;13.27;;;;;;;;;;5034672;28;20044;-68
2022/01/27 08:38:33;;;;;;;28.55;13.70;;;;;;;;;;5031911;28;20140;-69
2022/01/27 08:40:59;;;;;;;26.02;12.77;;;;;;;;;;5036495;28;20144;-69
2022/01/27 08:43:26;;;;;;;28.48;13.30;;;;;;;;;;5040488;28;20048;-69
2022/01/27 08:45:53;;;;;;;31.25;13.63;;;;;;;;;;5039099;28;20883;-69
2022/01/27 08:48:21;;;;;;;29.75;13.48;;;;;;;;;;5040743;28;20656;-69
2022/01/27 08:50:58;;;;;;;31.33;13.68;;;;;;;;;;5040197;28;20049;-68
2022/01/27 08:53:44;;;;;;;27.80;13.32;;;;;;;;;;5039228;28;20769;-69
2022/01/27 08:56:13;;;;;;;29.90;14.43;;;;;;;;;;5032627;28;20053;-68
2022/01/27 08:58:40;;;;;;;32.10;16.15;;;;;;;;;;5039585;28;20135;-69
2022/01/27 09:01:06;;;;;;;28.85;13.35;;;;;;;;;;5039670;28;20517;-68
2022/01/27 09:03:34;;;;;;;34.35;13.23;;;;;;;;;;5039944;28;20110;-68
2022/01/27 09:06:02;;;;;;;26.75;13.50;;;;;;;;;;5039574;28;20049;-68
2022/01/27 09:08:28;;;;;;;33.20;15.00;;;;;;;;;;5036282;28;20057;-69
2022/01/27 09:10:54;;;;;;;28.92;13.90;;;;;;;;;;5036028;28;20049;-68
2022/01/27 09:13:20;;;;;;;29.05;14.25;;;;;;;;;;5039146;28;21335;-68
2022/01/27 09:15:49;;;;;;;33.60;14.80;;;;;;;;;;5038158;28;20053;-68
2022/01/27 09:18:16;;;;;;;26.25;13.60;;;;;;;;;;5038069;28;20447;-69
2022/01/27 09:20:43;;;;;;;40.92;16.02;;;;;;;;;;5038512;28;20099;-69
2022/01/27 09:23:14;;;;;;;24.73;12.40;;;;;;;;;;5039074;28;20049;-69
2022/01/27 09:25:45;;;;;;;25.60;10.68;;;;;;;;;;5038852;28;20084;-69
2022/01/27 09:28:12;;;;;;;23.00;12.60;;;;;;;;;;5036555;28;20053;-69
2022/01/27 09:30:39;;;;;;;24.95;12.95;;;;;;;;;;5037272;28;20498;-69
2022/01/27 09:33:06;;;;;;;24.15;12.07;;;;;;;;;;5036405;28;20653;-69
2022/01/27 09:35:32;;;;;;;29.10;13.60;;;;;;;;;;5032909;28;20049;-69
2022/01/27 09:37:59;;;;;;;22.30;11.63;;;;;;;;;;5025763;28;20046;-69
2022/01/27 09:40:26;;;;;;;24.55;11.95;;;;;;;;;;5037837;28;20140;-69
2022/01/27 09:42:54;;;;;;;21.27;11.30;;;;;;;;;;5038706;28;20057;-69
2022/01/27 09:45:22;;;;;;;29.85;13.23;;;;;;;;;;5037729;28;20464;-68
2022/01/27 09:47:55;;;;;;;21.95;10.82;;;;;;;;;;5039026;28;20621;-69
2022/01/27 09:50:47;;;;;;;26.27;12.73;;;;;;;;;;5039179;28;20052;-69
2022/01/27 09:53:14;;;;;;;21.20;10.75;;;;;;;;;;5038772;28;20113;-69
2022/01/27 09:55:40;;;;;;;28.33;12.27;;;;;;;;;;5038833;28;20365;-69
2022/01/27 09:58:07;;;;;;;24.95;11.55;;;;;;;;;;5039901;28;20666;-70
2022/01/27 10:00:34;;;;;;;26.10;11.15;;;;;;;;;;5038957;28;20049;-69
2022/01/27 10:03:12;;;;;;;22.20;12.25;;;;;;;;;;5037378;28;20045;-69
2022/01/27 10:05:40;;;;;;;21.65;11.02;;;;;;;;;;5036981;28;20465;-68
2022/01/27 10:08:10;;;;;;;18.92;10.98;;;;;;;;;;5018499;28;20093;-69
2022/01/27 10:10:47;;;;;;;19.77;10.55;;;;;;;;;;5033591;28;20599;-68
2022/01/27 10:13:32;;;;;;;19.48;10.77;;;;;;;;;;5038573;28;20048;-69
2022/01/27 10:16:00;;;;;;;23.33;11.27;;;;;;;;;;5032761;28;20365;-69
2022/01/27 10:18:34;;;;;;;23.13;12.48;;;;;;;;;;5038249;28;20095;-69
2022/01/27 10:21:00;;;;;;;26.17;12.45;;;;;;;;;;5037539;28;20061;-68
2022/01/27 10:23:31;;;;;;;23.30;12.82;;;;;;;;;;5038339;28;20060;-69
2022/01/27 10:26:07;;;;;;;23.50;12.10;;;;;;;;;;5038328;28;20057;-68
2022/01/27 10:31:12;;;;;;;25.98;12.57;;;;;;;;;;5037879;28;20280;-69
2022/01/27 10:33:55;;;;;;;24.58;11.55;;;;;;;;;;5031500;28;20056;-69
2022/01/27 10:36:29;;;;;;;19.08;9.93;;;;;;;;;;5038108;28;20053;-69
2022/01/27 10:38:57;;;;;;;19.92;9.20;;;;;;;;;;5038469;28;20476;-69
2022/01/27 10:41:25;;;;;;;21.08;9.75;;;;;;;;;;5037815;28;20057;-69
2022/01/27 10:44:03;;;;;;;20.58;9.85;;;;;;;;;;5027630;28;20560;-69
2022/01/27 10:46:31;;;;;;;22.38;10.38;;;;;;;;;;5025280;28;20504;-69
2022/01/27 10:49:03;;;;;;;18.92;10.07;;;;;;;;;;5037373;28;20067;-69
2022/01/27 10:51:38;;;;;;;21.38;10.23;;;;;;;;;;5037842;28;20049;-69
2022/01/27 10:54:20;;;;;;;20.27;10.30;;;;;;;;;;5038516;28;20048;-69
2022/01/27 10:56:47;;;;;;;15.20;10.00;;;;;;;;;;5026457;28;20060;-69
2022/01/27 10:59:19;;;;;;;16.77;9.70;;;;;;;;;;5020156;28;20057;-69
2022/01/27 11:01:47;;;;;;;17.20;9.65;;;;;;;;;;5020033;28;20097;-69
2022/01/27 11:04:14;;;;;;;15.60;8.63;;;;;;;;;;5020654;28;20640;-69
2022/01/27 11:06:56;;;;;;;18.40;10.30;;;;;;;;;;5019728;28;20051;-69
2022/01/27 11:09:23;;;;;;;16.67;9.98;;;;;;;;;;5021369;28;20061;-69
2022/01/27 11:11:52;;;;;;;17.45;8.68;;;;;;;;;;5023094;28;20042;-69
2022/01/27 11:14:19;;;;;;;;;;;;;;;;;;5022187;28;20055;-69
2022/01/27 11:16:49;;;;;;;19.17;9.98;;;;;;;;;;5017799;28;19925;-69
2022/01/27 11:21:48;;;;;;;24.63;11.52;;;;;;;;;;5021563;28;20057;-69
2022/01/27 11:24:28;;;;;;;19.85;10.70;;;;;;;;;;5017824;28;20050;-69
2022/01/27 11:26:56;;;;;;;21.13;10.32;;;;;;;;;;5020010;28;20064;-69
2022/01/27 11:29:24;;;;;;;18.25;10.25;;;;;;;;;;5017604;28;20598;-69
2022/01/27 11:32:09;;;;;;;20.73;9.75;;;;;;;;;;5016441;28;20041;-69
2022/01/27 11:34:49;;;;;;;19.15;9.55;;;;;;;;;;5020033;28;20075;-69
2022/01/27 11:37:18;;;;;;;18.83;9.30;;;;;;;;;;5020872;28;20056;-68
2022/01/27 11:39:48;;;;;;;27.15;12.30;;;;;;;;;;5022426;28;20072;-69
2022/01/27 11:42:14;;;;;;;22.40;10.65;;;;;;;;;;5019314;28;20045;-69
2022/01/27 11:44:42;;;;;;;25.45;10.27;;;;;;;;;;5016343;28;20055;-68
2022/01/27 11:47:13;;;;;;;26.90;9.95;;;;;;;;;;5019500;28;20348;-69
2022/01/27 11:49:55;;;;;;;21.10;9.77;;;;;;;;;;5019267;28;20053;-68
2022/01/27 11:52:23;;;;;;;20.58;11.27;;;;;;;;;;5017204;28;20050;-69
2022/01/27 11:54:49;;;;;;;25.63;12.98;;;;;;;;;;5018967;28;20045;-69
2022/01/27 11:57:34;;;;;;;30.90;11.80;;;;;;;;;;5017716;28;20056;-69
2022/01/27 12:00:07;;;;;;;25.17;11.70;;;;;;;;;;5017914;28;20058;-68
2022/01/27 12:02:52;;;;;;;35.13;12.13;;;;;;;;;;5017465;28;20072;-70
2022/01/27 12:05:19;;;;;;;23.85;11.38;;;;;;;;;;5016873;28;20046;-69
2022/01/27 12:08:04;;;;;;;26.15;11.70;;;;;;;;;;5020607;28;20434;-69
2022/01/27 12:10:41;;;;;;;21.75;10.77;;;;;;;;;;5019061;28;20053;-69
2022/01/27 12:13:32;;;;;;;30.52;12.18;;;;;;;;;;5019116;28;20112;-69
2022/01/27 12:16:37;;;;;;;25.40;11.32;;;;;;;;;;5020599;28;20088;-69
2022/01/27 12:19:11;;;;;;;30.92;12.75;;;;;;;;;;5022025;28;20072;-69
2022/01/27 12:21:45;;;;;;;25.40;12.07;;;;;;;;;;5022889;28;20060;-69
2022/01/27 12:24:21;;;;;;;22.33;11.60;;;;;;;;;;5025821;28;20049;-69
2022/01/27 12:26:53;;;;;;;25.90;11.20;;;;;;;;;;5038150;28;20057;-69
2022/01/27 12:29:40;;;;;;;32.10;11.82;;;;;;;;;;5033880;28;20045;-69
2022/01/27 12:32:07;;;;;;;28.08;11.45;;;;;;;;;;5031640;28;20530;-69
2022/01/27 12:34:35;;;;;;;23.50;11.63;;;;;;;;;;5035281;28;20041;-69
2022/01/27 12:37:03;;;;;;;31.00;12.20;;;;;;;;;;5024945;28;20053;-69
2022/01/27 12:39:37;;;;;;;28.77;11.85;;;;;;;;;;5040751;28;20056;-69
2022/01/27 12:42:13;;;;;;;25.58;11.45;;;;;;;;;;5038334;28;20585;-69
2022/01/27 12:44:42;;;;;;;19.20;10.30;;;;;;;;;;5039722;28;20049;-69
2022/01/27 12:47:14;;;;;;;21.85;11.77;;;;;;;;;;5040515;28;20052;-69
2022/01/27 12:49:47;;;;;;;23.02;12.38;;;;;;;;;;5039964;28;20107;-69
2022/01/27 12:52:20;;;;;;;31.70;13.05;;;;;;;;;;5040458;28;20787;-69
2022/01/27 12:54:50;;;;;;;20.08;12.55;;;;;;;;;;5027283;28;20045;-69
2022/01/27 12:57:36;;;;;;;30.13;12.32;;;;;;;;;;5026185;28;20060;-69
2022/01/27 13:00:04;;;;;;;31.85;12.52;;;;;;;;;;5026518;28;20042;-69
2022/01/27 13:02:32;;;;;;;25.08;13.07;;;;;;;;;;5024164;28;20054;-69
2022/01/27 13:04:59;;;;;;;26.67;11.98;;;;;;;;;;5024355;28;20048;-69
2022/01/27 13:07:26;;;;;;;23.27;12.55;;;;;;;;;;5028941;28;20050;-69
2022/01/27 13:10:02;;;;;;;26.40;13.38;;;;;;;;;;5016937;28;20500;-69
2022/01/27 13:12:34;;;;;;;23.58;11.50;;;;;;;;;;5019652;28;20045;-69
2022/01/27 13:15:13;;;;;;;25.65;11.73;;;;;;;;;;5034622;28;20100;-69
2022/01/27 13:17:52;;;;;;;21.20;12.05;;;;;;;;;;5040782;28;20049;-69
2022/01/27 13:20:36;;;;;;;27.88;11.70;;;;;;;;;;5044236;28;20052;-69
2022/01/27 13:25:54;;;;;;;18.98;10.15;;;;;;;;;;5026238;28;20045;-68
2022/01/27 13:28:26;;;;;;;28.10;10.75;;;;;;;;;;5038911;28;20552;-69
2022/01/27 13:30:54;;;;;;;19.95;10.95;;;;;;;;;;5039750;28;20051;-69
2022/01/27 13:33:22;;;;;;;21.58;10.38;;;;;;;;;;5040356;28;20049;-69
2022/01/27 13:35:49;;;;;;;22.85;10.25;;;;;;;;;;5039050;28;20049;-69
2022/01/27 13:38:28;;;;;;;25.50;10.15;;;;;;;;;;5040116;28;20052;-69
2022/01/27 13:41:19;;;;;;;28.30;10.73;;;;;;;;;;5039841;28;20056;-69
2022/01/27 13:44:16;;;;;;;23.40;9.50;;;;;;;;;;5039592;28;20469;-68
2022/01/27 13:46:50;;;;;;;18.98;8.80;;;;;;;;;;5039570;28;20156;-68
2022/01/27 13:49:19;;;;;;;20.67;8.40;;;;;;;;;;5039877;28;20049;-68
2022/01/27 13:51:53;;;;;;;23.90;7.82;;;;;;;;;;5037883;28;20049;-68
2022/01/27 13:54:33;;;;;;;24.55;7.13;;;;;;;;;;5039255;28;20738;-68
2022/01/27 13:57:04;;;;;;;17.83;7.43;;;;;;;;;;5037768;28;20056;-68
2022/01/27 13:59:55;;;;;;;25.20;7.30;;;;;;;;;;5027992;28;20049;-68
2022/01/27 14:02:23;;;;;;;15.25;6.40;;;;;;;;;;5037253;28;20055;-68
2022/01/27 14:04:50;;;;;;;22.50;6.50;;;;;;;;;;5037900;28;20147;-68
2022/01/27 14:07:24;;;;;;;17.55;5.43;;;;;;;;;;5038329;28;20505;-68
2022/01/27 14:09:52;;;;;;;19.38;5.63;;;;;;;;;;5036025;28;20056;-68
2022/01/27 14:12:28;;;;;;;;;;;;;;;;;;5039320;28;20049;-68
2022/01/27 14:14:55;;;;;;;14.60;3.88;;;;;;;;;;5037582;28;19975;-68
2022/01/27 14:17:25;;;;;;;12.13;4.40;;;;;;;;;;5038255;28;20134;-68
2022/01/27 14:19:52;;;;;;;16.20;4.43;;;;;;;;;;5038061;28;20668;-69
2022/01/27 14:22:20;;;;;;;12.52;3.67;;;;;;;;;;5038583;28;20083;-68
2022/01/27 14:25:03;;;;;;;12.48;4.38;;;;;;;;;;5037911;28;20083;-69
2022/01/27 14:27:39;;;;;;;12.60;3.47;;;;;;;;;;5036078;28;20658;-69
2022/01/27 14:30:11;;;;;;;13.25;3.33;;;;;;;;;;5037983;28;20057;-69
2022/01/27 14:32:39;;;;;;;13.27;3.67;;;;;;;;;;5038088;28;20044;-68
2022/01/27 14:35:07;;;;;;;10.02;3.38;;;;;;;;;;5037254;28;20480;-69
2022/01/27 14:37:37;;;;;;;14.02;3.08;;;;;;;;;;5038745;28;20160;-69
2022/01/27 14:40:06;;;;;;;13.38;4.25;;;;;;;;;;5038355;28;20107;-69
2022/01/27 14:42:34;;;;;;;12.98;3.40;;;;;;;;;;5037249;28;20231;-69
2022/01/27 14:45:01;;;;;;;11.90;3.47;;;;;;;;;;5034732;28;20055;-70
2022/01/27 14:47:28;;;;;;;12.68;3.60;;;;;;;;;;5038067;28;20107;-69
2022/01/27 14:49:54;;;;;;;11.48;3.75;;;;;;;;;;5037400;28;20095;-67
2022/01/27 14:52:28;;;;;;;13.57;3.05;;;;;;;;;;5038110;28;20059;-69
2022/01/27 14:54:55;;;;;;;11.93;2.55;;;;;;;;;;5037390;28;20049;-69
2022/01/27 14:57:35;;;;;;;11.18;2.60;;;;;;;;;;5037828;28;20518;-69
2022/01/27 15:00:06;;;;;;;10.45;3.53;;;;;;;;;;5037495;28;20148;-69
2022/01/27 15:02:33;;;;;;;12.35;3.38;;;;;;;;;;5026995;28;20161;-69
2022/01/27 15:04:59;;;;;;;8.70;2.35;;;;;;;;;;5037079;28;20148;-69
2022/01/27 15:07:26;;;;;;;10.27;2.95;;;;;;;;;;5037329;28;20056;-69
2022/01/27 15:09:52;;;;;;;12.70;2.90;;;;;;;;;;5035335;28;20127;-69
2022/01/27 15:12:18;;;;;;;18.58;4.00;;;;;;;;;;5037289;28;20045;-69
2022/01/27 15:20:15;;;;;;;11.38;3.67;;;;;;;;;;5033998;28;20068;-69
2022/01/27 15:22:41;;;;;;;16.80;3.83;;;;;;;;;;5037183;28;20060;-69